Mc David, Florida
Current Conditions -  °F | °C
As of 5:56 AM on Sunday 23 Nov 2014 (Local Time) from KNSE Reporting Station
Overcast Overcast  
Wind Chill: 67°   Ceiling: 200
Heat Index: 67°   Visibility: 10mi
Dew Point: 66°   Wind: 14mph
Humidity: 97%   Direction: 120°ESE
Pressure: 29.83"   Gusts: NA
Location:  30.8697°N, 87.4663°W
Report Text: KNSE 231156Z AUTO 12012KT 10SM OVC002 19/19 A2983 RMK AO2 RAE50 SLP087 P0000 60000 70010 T01940189 10200 20161 58012 $
Loading
Personal Weather Stations






























Interactive Weather Map New forecast layout! Learn more

10-Day Weather Forecast

Advertisements
Track Severe Weather on mobile